sensor_id;sensor_type;location;lat;lon;timestamp;P1;durP1;ratioP1;P2;durP2;ratioP2
28756;SDS011;44294;48.282;14.282;2022-07-23T00:02:43;11.67;;;10.27;;
28756;SDS011;44294;48.282;14.282;2022-07-23T00:05:31;12.97;;;10.60;;
28756;SDS011;44294;48.282;14.282;2022-07-23T00:08:18;11.73;;;10.17;;
28756;SDS011;44294;48.282;14.282;2022-07-23T00:11:06;15.30;;;10.40;;
28756;SDS011;44294;48.282;14.282;2022-07-23T00:13:53;12.67;;;10.17;;
28756;SDS011;44294;48.282;14.282;2022-07-23T00:16:41;12.90;;;10.30;;
28756;SDS011;44294;48.282;14.282;2022-07-23T00:19:28;24.53;;;10.50;;
28756;SDS011;44294;48.282;14.282;2022-07-23T00:22:16;14.60;;;10.37;;
28756;SDS011;44294;48.282;14.282;2022-07-23T00:25:03;12.87;;;10.70;;
28756;SDS011;44294;48.282;14.282;2022-07-23T00:27:51;15.47;;;10.43;;
28756;SDS011;44294;48.282;14.282;2022-07-23T00:30:38;11.27;;;9.63;;
28756;SDS011;44294;48.282;14.282;2022-07-23T00:33:25;14.90;;;10.57;;
28756;SDS011;44294;48.282;14.282;2022-07-23T00:36:13;13.50;;;10.60;;
28756;SDS011;44294;48.282;14.282;2022-07-23T00:39:00;15.50;;;11.10;;
28756;SDS011;44294;48.282;14.282;2022-07-23T00:41:48;12.87;;;10.77;;
28756;SDS011;44294;48.282;14.282;2022-07-23T00:44:35;12.63;;;10.60;;
28756;SDS011;44294;48.282;14.282;2022-07-23T00:47:23;11.47;;;10.27;;
28756;SDS011;44294;48.282;14.282;2022-07-23T00:50:10;14.73;;;10.80;;
28756;SDS011;44294;48.282;14.282;2022-07-23T00:52:58;13.93;;;11.30;;
28756;SDS011;44294;48.282;14.282;2022-07-23T00:55:45;16.57;;;11.60;;
28756;SDS011;44294;48.282;14.282;2022-07-23T00:58:34;13.40;;;10.90;;
28756;SDS011;44294;48.282;14.282;2022-07-23T01:01:22;12.83;;;11.03;;
28756;SDS011;44294;48.282;14.282;2022-07-23T01:04:09;13.70;;;10.90;;
28756;SDS011;44294;48.282;14.282;2022-07-23T01:06:57;15.57;;;11.67;;
28756;SDS011;44294;48.282;14.282;2022-07-23T01:09:45;14.20;;;11.27;;
28756;SDS011;44294;48.282;14.282;2022-07-23T01:12:32;13.00;;;11.53;;
28756;SDS011;44294;48.282;14.282;2022-07-23T01:15:20;15.43;;;12.33;;
28756;SDS011;44294;48.282;14.282;2022-07-23T01:18:07;13.27;;;11.87;;
28756;SDS011;44294;48.282;14.282;2022-07-23T01:20:55;14.73;;;11.97;;
28756;SDS011;44294;48.282;14.282;2022-07-23T01:23:42;13.13;;;11.23;;
28756;SDS011;44294;48.282;14.282;2022-07-23T01:26:29;12.60;;;11.07;;
28756;SDS011;44294;48.282;14.282;2022-07-23T01:29:17;12.87;;;11.37;;
28756;SDS011;44294;48.282;14.282;2022-07-23T01:32:05;13.47;;;11.40;;
28756;SDS011;44294;48.282;14.282;2022-07-23T01:34:53;14.77;;;12.00;;
28756;SDS011;44294;48.282;14.282;2022-07-23T01:37:40;13.17;;;11.10;;
28756;SDS011;44294;48.282;14.282;2022-07-23T01:40:27;16.20;;;11.60;;
28756;SDS011;44294;48.282;14.282;2022-07-23T01:43:15;12.17;;;10.30;;
28756;SDS011;44294;48.282;14.282;2022-07-23T01:46:02;12.80;;;10.77;;
28756;SDS011;44294;48.282;14.282;2022-07-23T01:48:50;12.47;;;11.13;;
28756;SDS011;44294;48.282;14.282;2022-07-23T01:51:37;12.27;;;10.77;;
28756;SDS011;44294;48.282;14.282;2022-07-23T01:54:32;13.60;;;11.03;;
28756;SDS011;44294;48.282;14.282;2022-07-23T01:57:15;11.73;;;10.50;;
28756;SDS011;44294;48.282;14.282;2022-07-23T02:00:03;12.43;;;11.13;;
28756;SDS011;44294;48.282;14.282;2022-07-23T02:02:50;11.90;;;10.57;;
28756;SDS011;44294;48.282;14.282;2022-07-23T02:05:38;12.90;;;10.60;;
28756;SDS011;44294;48.282;14.282;2022-07-23T02:08:25;12.43;;;10.53;;
28756;SDS011;44294;48.282;14.282;2022-07-23T02:11:12;12.90;;;10.90;;
28756;SDS011;44294;48.282;14.282;2022-07-23T02:14:00;11.50;;;10.27;;
28756;SDS011;44294;48.282;14.282;2022-07-23T02:16:47;11.87;;;10.67;;
28756;SDS011;44294;48.282;14.282;2022-07-23T02:19:34;13.37;;;10.70;;
28756;SDS011;44294;48.282;14.282;2022-07-23T02:22:22;13.27;;;10.50;;
28756;SDS011;44294;48.282;14.282;2022-07-23T02:25:09;11.67;;;10.13;;
28756;SDS011;44294;48.282;14.282;2022-07-23T02:27:56;14.07;;;11.20;;
28756;SDS011;44294;48.282;14.282;2022-07-23T02:30:44;12.33;;;10.70;;
28756;SDS011;44294;48.282;14.282;2022-07-23T02:33:31;16.50;;;10.67;;
28756;SDS011;44294;48.282;14.282;2022-07-23T02:36:18;12.27;;;10.90;;
28756;SDS011;44294;48.282;14.282;2022-07-23T02:39:06;15.70;;;10.50;;
28756;SDS011;44294;48.282;14.282;2022-07-23T02:41:53;11.80;;;10.00;;
28756;SDS011;44294;48.282;14.282;2022-07-23T02:44:40;12.60;;;10.40;;
28756;SDS011;44294;48.282;14.282;2022-07-23T02:47:28;13.07;;;10.17;;
28756;SDS011;44294;48.282;14.282;2022-07-23T02:50:15;12.13;;;10.40;;
28756;SDS011;44294;48.282;14.282;2022-07-23T02:53:02;13.93;;;10.50;;
28756;SDS011;44294;48.282;14.282;2022-07-23T02:55:49;12.40;;;10.13;;
28756;SDS011;44294;48.282;14.282;2022-07-23T02:58:37;14.17;;;10.90;;
28756;SDS011;44294;48.282;14.282;2022-07-23T03:01:24;14.13;;;10.53;;
28756;SDS011;44294;48.282;14.282;2022-07-23T03:04:12;13.37;;;10.17;;
28756;SDS011;44294;48.282;14.282;2022-07-23T03:06:59;12.43;;;10.50;;
28756;SDS011;44294;48.282;14.282;2022-07-23T03:09:47;15.13;;;10.23;;
28756;SDS011;44294;48.282;14.282;2022-07-23T03:12:34;12.57;;;10.60;;
28756;SDS011;44294;48.282;14.282;2022-07-23T03:15:21;11.50;;;10.30;;
28756;SDS011;44294;48.282;14.282;2022-07-23T03:18:09;14.80;;;10.33;;
28756;SDS011;44294;48.282;14.282;2022-07-23T03:20:56;12.33;;;10.70;;
28756;SDS011;44294;48.282;14.282;2022-07-23T03:23:43;11.80;;;10.50;;
28756;SDS011;44294;48.282;14.282;2022-07-23T03:26:31;13.03;;;10.30;;
28756;SDS011;44294;48.282;14.282;2022-07-23T03:29:18;11.87;;;10.20;;
28756;SDS011;44294;48.282;14.282;2022-07-23T03:32:05;11.83;;;10.27;;
28756;SDS011;44294;48.282;14.282;2022-07-23T03:34:53;13.27;;;10.70;;
28756;SDS011;44294;48.282;14.282;2022-07-23T03:37:40;12.37;;;10.03;;
28756;SDS011;44294;48.282;14.282;2022-07-23T03:40:28;14.33;;;11.53;;
28756;SDS011;44294;48.282;14.282;2022-07-23T03:43:15;13.30;;;10.93;;
28756;SDS011;44294;48.282;14.282;2022-07-23T03:46:02;11.73;;;10.37;;
28756;SDS011;44294;48.282;14.282;2022-07-23T03:48:50;12.80;;;10.30;;
28756;SDS011;44294;48.282;14.282;2022-07-23T03:51:37;11.60;;;10.40;;
28756;SDS011;44294;48.282;14.282;2022-07-23T03:54:24;13.03;;;10.60;;
28756;SDS011;44294;48.282;14.282;2022-07-23T03:57:12;15.03;;;11.17;;
28756;SDS011;44294;48.282;14.282;2022-07-23T03:59:59;12.20;;;10.53;;
28756;SDS011;44294;48.282;14.282;2022-07-23T04:02:46;13.27;;;10.40;;
28756;SDS011;44294;48.282;14.282;2022-07-23T04:05:34;11.30;;;9.90;;
28756;SDS011;44294;48.282;14.282;2022-07-23T04:08:21;11.97;;;10.20;;
28756;SDS011;44294;48.282;14.282;2022-07-23T04:11:09;13.23;;;10.20;;
28756;SDS011;44294;48.282;14.282;2022-07-23T04:13:56;11.50;;;10.30;;
28756;SDS011;44294;48.282;14.282;2022-07-23T04:16:43;11.87;;;10.07;;
28756;SDS011;44294;48.282;14.282;2022-07-23T04:19:31;11.40;;;10.20;;
28756;SDS011;44294;48.282;14.282;2022-07-23T04:22:18;12.97;;;10.60;;
28756;SDS011;44294;48.282;14.282;2022-07-23T04:25:05;12.73;;;10.23;;
28756;SDS011;44294;48.282;14.282;2022-07-23T04:27:53;11.37;;;10.17;;
28756;SDS011;44294;48.282;14.282;2022-07-23T04:30:40;14.67;;;10.30;;
28756;SDS011;44294;48.282;14.282;2022-07-23T04:33:28;11.60;;;10.40;;
28756;SDS011;44294;48.282;14.282;2022-07-23T04:36:15;11.67;;;10.40;;
28756;SDS011;44294;48.282;14.282;2022-07-23T04:39:02;16.97;;;12.17;;
28756;SDS011;44294;48.282;14.282;2022-07-23T04:41:50;16.07;;;12.90;;
28756;SDS011;44294;48.282;14.282;2022-07-23T04:44:37;13.70;;;11.90;;
28756;SDS011;44294;48.282;14.282;2022-07-23T04:47:25;14.60;;;11.73;;
28756;SDS011;44294;48.282;14.282;2022-07-23T04:50:12;14.60;;;12.63;;
28756;SDS011;44294;48.282;14.282;2022-07-23T04:53:01;17.63;;;13.90;;
28756;SDS011;44294;48.282;14.282;2022-07-23T04:55:49;15.60;;;13.60;;
28756;SDS011;44294;48.282;14.282;2022-07-23T04:58:36;15.90;;;13.47;;
28756;SDS011;44294;48.282;14.282;2022-07-23T05:01:23;20.30;;;13.97;;
28756;SDS011;44294;48.282;14.282;2022-07-23T05:04:11;16.67;;;13.57;;
28756;SDS011;44294;48.282;14.282;2022-07-23T05:06:59;17.73;;;14.00;;
28756;SDS011;44294;48.282;14.282;2022-07-23T05:09:46;17.77;;;13.53;;
28756;SDS011;44294;48.282;14.282;2022-07-23T05:12:33;17.93;;;13.30;;
28756;SDS011;44294;48.282;14.282;2022-07-23T05:15:21;15.97;;;12.10;;
28756;SDS011;44294;48.282;14.282;2022-07-23T05:18:08;14.30;;;10.67;;
28756;SDS011;44294;48.282;14.282;2022-07-23T05:20:56;13.73;;;10.43;;
28756;SDS011;44294;48.282;14.282;2022-07-23T05:23:43;11.87;;;9.30;;
28756;SDS011;44294;48.282;14.282;2022-07-23T05:26:30;13.07;;;9.07;;
28756;SDS011;44294;48.282;14.282;2022-07-23T05:29:17;12.07;;;8.67;;
28756;SDS011;44294;48.282;14.282;2022-07-23T05:32:05;10.80;;;7.60;;
28756;SDS011;44294;48.282;14.282;2022-07-23T05:34:52;8.53;;;6.80;;
28756;SDS011;44294;48.282;14.282;2022-07-23T05:37:40;8.50;;;6.37;;
28756;SDS011;44294;48.282;14.282;2022-07-23T05:40:27;8.80;;;5.90;;
28756;SDS011;44294;48.282;14.282;2022-07-23T05:43:15;7.83;;;5.60;;
28756;SDS011;44294;48.282;14.282;2022-07-23T05:46:02;7.73;;;5.43;;
28756;SDS011;44294;48.282;14.282;2022-07-23T05:48:50;7.23;;;5.30;;
28756;SDS011;44294;48.282;14.282;2022-07-23T05:51:38;6.03;;;5.10;;
28756;SDS011;44294;48.282;14.282;2022-07-23T05:54:25;6.87;;;5.40;;
28756;SDS011;44294;48.282;14.282;2022-07-23T05:57:12;7.50;;;5.07;;
28756;SDS011;44294;48.282;14.282;2022-07-23T06:00:00;8.30;;;5.47;;
28756;SDS011;44294;48.282;14.282;2022-07-23T06:02:47;6.80;;;5.00;;
28756;SDS011;44294;48.282;14.282;2022-07-23T06:05:35;7.10;;;5.20;;
28756;SDS011;44294;48.282;14.282;2022-07-23T06:08:22;7.27;;;5.30;;
28756;SDS011;44294;48.282;14.282;2022-07-23T06:11:09;5.33;;;4.83;;
28756;SDS011;44294;48.282;14.282;2022-07-23T06:13:57;8.60;;;5.20;;
28756;SDS011;44294;48.282;14.282;2022-07-23T06:16:45;9.23;;;5.40;;
28756;SDS011;44294;48.282;14.282;2022-07-23T06:19:33;7.80;;;5.40;;
28756;SDS011;44294;48.282;14.282;2022-07-23T06:22:20;8.00;;;5.63;;
28756;SDS011;44294;48.282;14.282;2022-07-23T06:25:08;7.70;;;5.20;;
28756;SDS011;44294;48.282;14.282;2022-07-23T06:27:55;8.67;;;5.87;;
28756;SDS011;44294;48.282;14.282;2022-07-23T06:30:42;7.47;;;5.60;;
28756;SDS011;44294;48.282;14.282;2022-07-23T06:33:30;8.07;;;5.60;;
28756;SDS011;44294;48.282;14.282;2022-07-23T06:36:17;7.03;;;5.70;;
28756;SDS011;44294;48.282;14.282;2022-07-23T06:39:05;8.57;;;5.80;;
28756;SDS011;44294;48.282;14.282;2022-07-23T06:41:53;6.63;;;5.50;;
28756;SDS011;44294;48.282;14.282;2022-07-23T06:44:40;8.77;;;5.83;;
28756;SDS011;44294;48.282;14.282;2022-07-23T06:47:27;12.20;;;5.83;;
28756;SDS011;44294;48.282;14.282;2022-07-23T06:50:15;6.37;;;5.73;;
28756;SDS011;44294;48.282;14.282;2022-07-23T06:53:02;17.10;;;5.80;;
28756;SDS011;44294;48.282;14.282;2022-07-23T06:55:49;7.13;;;6.00;;
28756;SDS011;44294;48.282;14.282;2022-07-23T06:58:37;8.03;;;5.73;;
28756;SDS011;44294;48.282;14.282;2022-07-23T07:01:24;7.57;;;5.70;;
28756;SDS011;44294;48.282;14.282;2022-07-23T07:04:11;6.00;;;5.40;;
28756;SDS011;44294;48.282;14.282;2022-07-23T07:06:59;8.40;;;5.73;;
28756;SDS011;44294;48.282;14.282;2022-07-23T07:09:46;6.73;;;5.70;;
28756;SDS011;44294;48.282;14.282;2022-07-23T07:12:34;7.67;;;5.70;;
28756;SDS011;44294;48.282;14.282;2022-07-23T07:15:21;6.33;;;5.70;;
28756;SDS011;44294;48.282;14.282;2022-07-23T07:18:08;7.57;;;5.80;;
28756;SDS011;44294;48.282;14.282;2022-07-23T07:20:58;7.87;;;5.80;;
28756;SDS011;44294;48.282;14.282;2022-07-23T07:23:46;8.17;;;5.77;;
28756;SDS011;44294;48.282;14.282;2022-07-23T07:26:33;7.90;;;5.53;;
28756;SDS011;44294;48.282;14.282;2022-07-23T07:29:21;8.53;;;5.77;;
28756;SDS011;44294;48.282;14.282;2022-07-23T07:32:08;8.63;;;5.70;;
28756;SDS011;44294;48.282;14.282;2022-07-23T07:34:56;7.43;;;5.83;;
28756;SDS011;44294;48.282;14.282;2022-07-23T07:37:43;8.67;;;5.60;;
28756;SDS011;44294;48.282;14.282;2022-07-23T07:40:31;8.73;;;5.47;;
28756;SDS011;44294;48.282;14.282;2022-07-23T07:43:18;7.10;;;5.30;;
28756;SDS011;44294;48.282;14.282;2022-07-23T07:46:05;6.83;;;5.53;;
28756;SDS011;44294;48.282;14.282;2022-07-23T07:48:54;5.50;;;4.87;;
28756;SDS011;44294;48.282;14.282;2022-07-23T07:51:42;6.60;;;5.10;;
28756;SDS011;44294;48.282;14.282;2022-07-23T07:54:29;9.07;;;5.20;;
28756;SDS011;44294;48.282;14.282;2022-07-23T07:57:16;9.23;;;5.03;;
28756;SDS011;44294;48.282;14.282;2022-07-23T08:00:05;5.67;;;5.00;;
28756;SDS011;44294;48.282;14.282;2022-07-23T08:02:53;8.43;;;5.40;;
28756;SDS011;44294;48.282;14.282;2022-07-23T08:05:41;7.43;;;5.27;;
28756;SDS011;44294;48.282;14.282;2022-07-23T08:08:28;5.80;;;5.20;;
28756;SDS011;44294;48.282;14.282;2022-07-23T08:11:16;6.17;;;5.50;;
28756;SDS011;44294;48.282;14.282;2022-07-23T08:14:03;6.43;;;5.60;;
28756;SDS011;44294;48.282;14.282;2022-07-23T08:16:50;6.03;;;5.43;;
28756;SDS011;44294;48.282;14.282;2022-07-23T08:19:38;6.77;;;5.63;;
28756;SDS011;44294;48.282;14.282;2022-07-23T08:22:25;7.20;;;5.60;;
28756;SDS011;44294;48.282;14.282;2022-07-23T08:25:13;6.70;;;5.40;;
28756;SDS011;44294;48.282;14.282;2022-07-23T08:28:01;6.43;;;5.73;;
28756;SDS011;44294;48.282;14.282;2022-07-23T08:30:49;6.63;;;5.83;;
28756;SDS011;44294;48.282;14.282;2022-07-23T08:33:36;6.73;;;5.90;;
28756;SDS011;44294;48.282;14.282;2022-07-23T08:36:23;6.37;;;5.70;;
28756;SDS011;44294;48.282;14.282;2022-07-23T08:39:12;6.80;;;5.70;;
28756;SDS011;44294;48.282;14.282;2022-07-23T08:42:00;7.43;;;5.73;;
28756;SDS011;44294;48.282;14.282;2022-07-23T08:44:47;7.10;;;5.40;;
28756;SDS011;44294;48.282;14.282;2022-07-23T08:47:35;11.07;;;6.03;;
28756;SDS011;44294;48.282;14.282;2022-07-23T08:50:24;7.13;;;6.10;;
28756;SDS011;44294;48.282;14.282;2022-07-23T08:53:12;7.43;;;5.90;;
28756;SDS011;44294;48.282;14.282;2022-07-23T08:56:01;7.93;;;6.13;;
28756;SDS011;44294;48.282;14.282;2022-07-23T08:58:48;7.10;;;6.03;;
28756;SDS011;44294;48.282;14.282;2022-07-23T09:01:35;7.77;;;5.93;;
28756;SDS011;44294;48.282;14.282;2022-07-23T09:04:23;7.43;;;5.60;;
28756;SDS011;44294;48.282;14.282;2022-07-23T09:07:10;8.73;;;5.43;;
28756;SDS011;44294;48.282;14.282;2022-07-23T09:10:08;5.97;;;5.10;;
28756;SDS011;44294;48.282;14.282;2022-07-23T09:12:47;6.80;;;5.60;;
28756;SDS011;44294;48.282;14.282;2022-07-23T09:15:34;9.00;;;5.40;;
28756;SDS011;44294;48.282;14.282;2022-07-23T09:18:30;7.13;;;5.37;;
28756;SDS011;44294;48.282;14.282;2022-07-23T09:21:25;6.60;;;5.37;;
28756;SDS011;44294;48.282;14.282;2022-07-23T09:24:14;6.67;;;5.13;;
28756;SDS011;44294;48.282;14.282;2022-07-23T09:27:03;7.73;;;5.43;;
28756;SDS011;44294;48.282;14.282;2022-07-23T09:29:56;6.07;;;5.20;;
28756;SDS011;44294;48.282;14.282;2022-07-23T09:32:43;6.13;;;5.53;;
28756;SDS011;44294;48.282;14.282;2022-07-23T09:35:47;5.87;;;5.27;;
28756;SDS011;44294;48.282;14.282;2022-07-23T09:38:32;5.97;;;5.33;;
28756;SDS011;44294;48.282;14.282;2022-07-23T09:41:19;7.30;;;5.07;;
28756;SDS011;44294;48.282;14.282;2022-07-23T09:44:08;5.20;;;4.70;;
28756;SDS011;44294;48.282;14.282;2022-07-23T09:46:59;6.50;;;5.00;;
28756;SDS011;44294;48.282;14.282;2022-07-23T09:50:03;6.43;;;5.00;;
28756;SDS011;44294;48.282;14.282;2022-07-23T09:52:52;5.73;;;4.60;;
28756;SDS011;44294;48.282;14.282;2022-07-23T09:55:39;4.93;;;4.37;;
28756;SDS011;44294;48.282;14.282;2022-07-23T09:58:27;7.43;;;4.13;;
28756;SDS011;44294;48.282;14.282;2022-07-23T10:01:15;5.07;;;4.40;;
28756;SDS011;44294;48.282;14.282;2022-07-23T10:04:03;7.00;;;4.17;;
28756;SDS011;44294;48.282;14.282;2022-07-23T10:06:54;4.60;;;4.00;;
28756;SDS011;44294;48.282;14.282;2022-07-23T10:09:42;4.30;;;3.90;;
28756;SDS011;44294;48.282;14.282;2022-07-23T10:12:30;4.40;;;4.00;;
28756;SDS011;44294;48.282;14.282;2022-07-23T10:15:36;4.47;;;3.90;;
28756;SDS011;44294;48.282;14.282;2022-07-23T10:18:24;4.77;;;3.90;;
28756;SDS011;44294;48.282;14.282;2022-07-23T10:21:11;5.70;;;4.07;;
28756;SDS011;44294;48.282;14.282;2022-07-23T10:26:56;3.80;;;3.50;;
28756;SDS011;44294;48.282;14.282;2022-07-23T10:35:43;4.00;;;3.47;;
28756;SDS011;44294;48.282;14.282;2022-07-23T10:38:23;3.80;;;3.40;;
28756;SDS011;44294;48.282;14.282;2022-07-23T10:41:09;5.10;;;3.50;;
28756;SDS011;44294;48.282;14.282;2022-07-23T10:44:06;4.90;;;3.60;;
28756;SDS011;44294;48.282;14.282;2022-07-23T10:46:57;4.37;;;3.93;;
28756;SDS011;44294;48.282;14.282;2022-07-23T10:50:17;3.93;;;3.50;;
28756;SDS011;44294;48.282;14.282;2022-07-23T10:56:02;6.23;;;3.80;;
28756;SDS011;44294;48.282;14.282;2022-07-23T10:58:49;4.10;;;3.80;;
28756;SDS011;44294;48.282;14.282;2022-07-23T11:01:37;4.10;;;3.70;;
28756;SDS011;44294;48.282;14.282;2022-07-23T11:07:30;4.20;;;3.73;;
28756;SDS011;44294;48.282;14.282;2022-07-23T11:10:31;5.37;;;4.00;;
28756;SDS011;44294;48.282;14.282;2022-07-23T11:16:20;4.40;;;4.00;;
28756;SDS011;44294;48.282;14.282;2022-07-23T11:19:08;5.12;;;4.10;;
28756;SDS011;44294;48.282;14.282;2022-07-23T11:21:55;4.93;;;4.43;;
28756;SDS011;44294;48.282;14.282;2022-07-23T11:24:52;6.30;;;4.80;;
28756;SDS011;44294;48.282;14.282;2022-07-23T11:27:41;4.87;;;4.47;;
28756;SDS011;44294;48.282;14.282;2022-07-23T11:33:18;5.30;;;4.80;;
28756;SDS011;44294;48.282;14.282;2022-07-23T11:36:06;5.83;;;4.85;;
28756;SDS011;44294;48.282;14.282;2022-07-23T11:38:53;5.78;;;5.17;;
28756;SDS011;44294;48.282;14.282;2022-07-23T11:41:44;5.55;;;4.85;;
28756;SDS011;44294;48.282;14.282;2022-07-23T11:44:35;5.30;;;4.70;;
28756;SDS011;44294;48.282;14.282;2022-07-23T11:47:24;5.30;;;4.80;;
28756;SDS011;44294;48.282;14.282;2022-07-23T11:50:11;8.03;;;4.97;;
28756;SDS011;44294;48.282;14.282;2022-07-23T11:52:59;5.30;;;4.80;;
28756;SDS011;44294;48.282;14.282;2022-07-23T11:55:47;6.03;;;5.42;;
28756;SDS011;44294;48.282;14.282;2022-07-23T11:58:34;6.23;;;5.00;;
28756;SDS011;44294;48.282;14.282;2022-07-23T12:01:21;5.73;;;5.17;;
28756;SDS011;44294;48.282;14.282;2022-07-23T12:04:09;5.80;;;5.20;;
28756;SDS011;44294;48.282;14.282;2022-07-23T12:06:56;5.78;;;5.17;;
28756;SDS011;44294;48.282;14.282;2022-07-23T12:09:48;5.87;;;4.87;;
28756;SDS011;44294;48.282;14.282;2022-07-23T12:12:36;5.42;;;4.65;;
28756;SDS011;44294;48.282;14.282;2022-07-23T12:15:26;5.90;;;5.00;;
28756;SDS011;44294;48.282;14.282;2022-07-23T12:18:18;5.80;;;5.13;;
28756;SDS011;44294;48.282;14.282;2022-07-23T12:21:05;6.08;;;5.20;;
28756;SDS011;44294;48.282;14.282;2022-07-23T12:24:04;5.87;;;5.08;;
28756;SDS011;44294;48.282;14.282;2022-07-23T12:27:07;6.75;;;5.08;;
28756;SDS011;44294;48.282;14.282;2022-07-23T12:29:34;5.10;;;4.65;;
28756;SDS011;44294;48.282;14.282;2022-07-23T12:32:23;6.53;;;4.70;;
28756;SDS011;44294;48.282;14.282;2022-07-23T12:35:11;5.12;;;4.62;;
28756;SDS011;44294;48.282;14.282;2022-07-23T12:38:02;5.50;;;4.95;;
28756;SDS011;44294;48.282;14.282;2022-07-23T12:40:51;5.17;;;4.75;;
28756;SDS011;44294;48.282;14.282;2022-07-23T12:43:40;6.78;;;4.85;;
28756;SDS011;44294;48.282;14.282;2022-07-23T12:46:28;6.53;;;5.12;;
28756;SDS011;44294;48.282;14.282;2022-07-23T12:49:26;5.40;;;4.80;;
28756;SDS011;44294;48.282;14.282;2022-07-23T12:52:16;6.70;;;4.80;;
28756;SDS011;44294;48.282;14.282;2022-07-23T12:55:05;5.47;;;4.85;;
28756;SDS011;44294;48.282;14.282;2022-07-23T12:57:52;5.83;;;4.50;;
28756;SDS011;44294;48.282;14.282;2022-07-23T13:00:57;4.78;;;4.37;;
28756;SDS011;44294;48.282;14.282;2022-07-23T13:03:54;6.20;;;4.30;;
28756;SDS011;44294;48.282;14.282;2022-07-23T13:06:38;5.10;;;4.50;;
28756;SDS011;44294;48.282;14.282;2022-07-23T13:09:26;4.70;;;4.30;;
28756;SDS011;44294;48.282;14.282;2022-07-23T13:12:14;5.03;;;4.50;;
28756;SDS011;44294;48.282;14.282;2022-07-23T13:15:01;5.60;;;4.80;;
28756;SDS011;44294;48.282;14.282;2022-07-23T13:17:48;5.58;;;4.40;;
28756;SDS011;44294;48.282;14.282;2022-07-23T13:20:36;5.45;;;4.80;;
28756;SDS011;44294;48.282;14.282;2022-07-23T13:23:25;5.35;;;4.75;;
28756;SDS011;44294;48.282;14.282;2022-07-23T13:26:12;5.40;;;4.90;;
28756;SDS011;44294;48.282;14.282;2022-07-23T13:28:59;5.40;;;4.90;;
28756;SDS011;44294;48.282;14.282;2022-07-23T13:31:47;5.17;;;4.78;;
28756;SDS011;44294;48.282;14.282;2022-07-23T13:34:35;5.35;;;4.85;;
28756;SDS011;44294;48.282;14.282;2022-07-23T13:37:22;5.97;;;4.55;;
28756;SDS011;44294;48.282;14.282;2022-07-23T13:40:10;5.45;;;4.95;;
28756;SDS011;44294;48.282;14.282;2022-07-23T13:42:57;7.15;;;4.97;;
28756;SDS011;44294;48.282;14.282;2022-07-23T13:45:45;6.03;;;5.10;;
28756;SDS011;44294;48.282;14.282;2022-07-23T13:48:32;5.20;;;4.70;;
28756;SDS011;44294;48.282;14.282;2022-07-23T13:51:19;5.58;;;5.08;;
28756;SDS011;44294;48.282;14.282;2022-07-23T13:54:07;6.15;;;5.20;;
28756;SDS011;44294;48.282;14.282;2022-07-23T13:56:54;5.42;;;4.92;;
28756;SDS011;44294;48.282;14.282;2022-07-23T13:59:42;5.53;;;5.03;;
28756;SDS011;44294;48.282;14.282;2022-07-23T14:02:29;6.33;;;4.80;;
28756;SDS011;44294;48.282;14.282;2022-07-23T14:05:17;5.97;;;4.62;;
28756;SDS011;44294;48.282;14.282;2022-07-23T14:08:04;6.08;;;5.00;;
28756;SDS011;44294;48.282;14.282;2022-07-23T14:10:52;5.33;;;4.83;;
28756;SDS011;44294;48.282;14.282;2022-07-23T14:13:39;5.55;;;5.05;;
28756;SDS011;44294;48.282;14.282;2022-07-23T14:16:26;6.28;;;5.30;;
28756;SDS011;44294;48.282;14.282;2022-07-23T14:19:14;6.30;;;5.60;;
28756;SDS011;44294;48.282;14.282;2022-07-23T14:22:01;6.42;;;5.45;;
28756;SDS011;44294;48.282;14.282;2022-07-23T14:24:49;8.18;;;5.50;;
28756;SDS011;44294;48.282;14.282;2022-07-23T14:27:36;7.60;;;5.75;;
28756;SDS011;44294;48.282;14.282;2022-07-23T14:30:24;6.22;;;5.62;;
28756;SDS011;44294;48.282;14.282;2022-07-23T14:33:11;5.90;;;5.40;;
28756;SDS011;44294;48.282;14.282;2022-07-23T14:36:00;6.10;;;5.55;;
28756;SDS011;44294;48.282;14.282;2022-07-23T14:38:48;6.00;;;5.50;;
28756;SDS011;44294;48.282;14.282;2022-07-23T14:41:35;5.95;;;5.35;;
28756;SDS011;44294;48.282;14.282;2022-07-23T14:44:22;6.15;;;5.65;;
28756;SDS011;44294;48.282;14.282;2022-07-23T14:47:10;6.50;;;5.90;;
28756;SDS011;44294;48.282;14.282;2022-07-23T14:49:58;6.20;;;5.60;;
28756;SDS011;44294;48.282;14.282;2022-07-23T14:52:45;6.78;;;6.10;;
28756;SDS011;44294;48.282;14.282;2022-07-23T14:55:32;6.33;;;5.73;;
28756;SDS011;44294;48.282;14.282;2022-07-23T14:58:20;6.33;;;5.50;;
28756;SDS011;44294;48.282;14.282;2022-07-23T15:01:07;6.57;;;5.80;;
28756;SDS011;44294;48.282;14.282;2022-07-23T15:03:55;6.20;;;5.60;;
28756;SDS011;44294;48.282;14.282;2022-07-23T15:06:42;7.43;;;5.80;;
28756;SDS011;44294;48.282;14.282;2022-07-23T15:09:30;7.83;;;5.70;;
28756;SDS011;44294;48.282;14.282;2022-07-23T15:12:18;7.42;;;5.70;;
28756;SDS011;44294;48.282;14.282;2022-07-23T15:15:05;6.30;;;5.70;;
28756;SDS011;44294;48.282;14.282;2022-07-23T15:17:53;6.53;;;5.72;;
28756;SDS011;44294;48.282;14.282;2022-07-23T15:20:40;6.30;;;5.70;;
28756;SDS011;44294;48.282;14.282;2022-07-23T15:23:27;6.13;;;5.50;;
28756;SDS011;44294;48.282;14.282;2022-07-23T15:26:15;6.37;;;5.75;;
28756;SDS011;44294;48.282;14.282;2022-07-23T15:29:04;7.17;;;5.43;;
28756;SDS011;44294;48.282;14.282;2022-07-23T15:31:52;7.07;;;5.83;;
28756;SDS011;44294;48.282;14.282;2022-07-23T15:34:39;7.10;;;5.80;;
28756;SDS011;44294;48.282;14.282;2022-07-23T15:37:27;6.50;;;5.53;;
28756;SDS011;44294;48.282;14.282;2022-07-23T15:40:14;6.60;;;5.90;;
28756;SDS011;44294;48.282;14.282;2022-07-23T15:43:01;6.60;;;5.73;;
28756;SDS011;44294;48.282;14.282;2022-07-23T15:45:49;8.80;;;6.77;;
28756;SDS011;44294;48.282;14.282;2022-07-23T15:48:37;9.20;;;6.50;;
28756;SDS011;44294;48.282;14.282;2022-07-23T15:51:25;6.87;;;6.17;;
28756;SDS011;44294;48.282;14.282;2022-07-23T15:54:12;7.67;;;6.50;;
28756;SDS011;44294;48.282;14.282;2022-07-23T15:56:59;6.87;;;6.17;;
28756;SDS011;44294;48.282;14.282;2022-07-23T15:59:47;8.53;;;6.37;;
28756;SDS011;44294;48.282;14.282;2022-07-23T16:02:34;6.73;;;6.03;;
28756;SDS011;44294;48.282;14.282;2022-07-23T16:05:21;6.67;;;6.07;;
28756;SDS011;44294;48.282;14.282;2022-07-23T16:08:19;7.43;;;6.30;;
28756;SDS011;44294;48.282;14.282;2022-07-23T16:11:06;6.97;;;6.27;;
28756;SDS011;44294;48.282;14.282;2022-07-23T16:13:53;6.77;;;6.07;;
28756;SDS011;44294;48.282;14.282;2022-07-23T16:16:42;7.20;;;6.00;;
28756;SDS011;44294;48.282;14.282;2022-07-23T16:19:29;6.80;;;5.83;;
28756;SDS011;44294;48.282;14.282;2022-07-23T16:22:16;14.07;;;7.00;;
28756;SDS011;44294;48.282;14.282;2022-07-23T16:25:04;6.83;;;6.20;;
28756;SDS011;44294;48.282;14.282;2022-07-23T16:27:52;7.60;;;6.80;;
28756;SDS011;44294;48.282;14.282;2022-07-23T16:30:40;7.10;;;6.40;;
28756;SDS011;44294;48.282;14.282;2022-07-23T16:33:27;7.40;;;6.30;;
28756;SDS011;44294;48.282;14.282;2022-07-23T16:36:15;9.03;;;6.50;;
28756;SDS011;44294;48.282;14.282;2022-07-23T16:39:02;7.33;;;6.57;;
28756;SDS011;44294;48.282;14.282;2022-07-23T16:41:50;6.93;;;6.10;;
28756;SDS011;44294;48.282;14.282;2022-07-23T16:44:37;9.53;;;6.23;;
28756;SDS011;44294;48.282;14.282;2022-07-23T16:47:25;7.40;;;6.40;;
28756;SDS011;44294;48.282;14.282;2022-07-23T16:50:12;10.53;;;6.33;;